Time;durP1;ratioP1;P1;durP2;ratioP2;P2;SDS_P1;SDS_P2;PMS_P1;PMS_P2;Temp;Humidity;BMP_temperature;BMP_pressure;BME280_temperature;BME280_humidity;BME280_pressure;Samples;Min_cycle;Max_cycle;Signal;HPM_P1;HPM_P2
2023/11/16 00:01:57;;;;;;;1.50;1.00;;;21.70;58.60;;;;;;5052952;28;20406;-70
2023/11/16 00:04:23;;;;;;;1.37;1.00;;;21.70;58.60;;;;;;5053105;28;20394;-69
2023/11/16 00:06:49;;;;;;;3.23;1.00;;;21.70;58.60;;;;;;5053171;28;20428;-68
2023/11/16 00:09:15;;;;;;;1.20;0.83;;;21.70;58.60;;;;;;5052831;28;20167;-69
2023/11/16 00:11:41;;;;;;;1.57;1.00;;;21.70;58.60;;;;;;5052864;28;20240;-69
2023/11/16 00:14:08;;;;;;;1.57;0.90;;;21.70;58.60;;;;;;5053047;28;20402;-70
2023/11/16 00:16:34;;;;;;;1.40;1.10;;;21.70;58.60;;;;;;5052881;28;20425;-68
2023/11/16 00:19:00;;;;;;;2.10;1.07;;;21.70;58.60;;;;;;5051331;28;20535;-68
2023/11/16 00:21:26;;;;;;;1.80;1.10;;;21.70;58.60;;;;;;5052538;28;20612;-68
2023/11/16 00:23:52;;;;;;;1.40;0.93;;;21.70;58.60;;;;;;5053001;28;20417;-69
2023/11/16 00:26:20;;;;;;;1.80;1.60;;;21.70;58.60;;;;;;5052638;28;21011;-68
2023/11/16 00:28:47;;;;;;;1.47;0.90;;;21.70;58.60;;;;;;5052673;28;20409;-68
2023/11/16 00:31:15;;;;;;;2.77;1.30;;;21.70;58.60;;;;;;5052586;28;20414;-68
2023/11/16 00:33:44;;;;;;;1.63;1.17;;;21.70;58.60;;;;;;5052456;28;20405;-70
2023/11/16 00:36:11;;;;;;;1.30;1.00;;;21.70;58.60;;;;;;5052324;28;20517;-69
2023/11/16 00:38:38;;;;;;;1.80;1.10;;;21.70;58.60;;;;;;5052442;28;20413;-70
2023/11/16 00:41:08;;;;;;;1.37;1.00;;;21.70;58.60;;;;;;5052315;28;20453;-68
2023/11/16 00:43:34;;;;;;;1.63;1.40;;;21.70;59.10;;;;;;5050931;28;20413;-68
2023/11/16 00:46:01;;;;;;;1.33;1.03;;;21.70;58.60;;;;;;5052317;28;20437;-69
2023/11/16 00:48:27;;;;;;;1.73;0.90;;;21.70;58.60;;;;;;5052289;28;20490;-69
2023/11/16 00:50:53;;;;;;;3.33;1.57;;;21.70;58.60;;;;;;5052430;28;20402;-70
2023/11/16 00:53:19;;;;;;;2.30;1.00;;;21.70;58.60;;;;;;5050891;28;20433;-69
2023/11/16 00:55:45;;;;;;;1.30;1.10;;;21.70;58.60;;;;;;5050717;28;20190;-68
2023/11/16 00:58:10;;;;;;;1.20;0.80;;;21.70;58.60;;;;;;5051982;28;20401;-70
2023/11/16 01:00:36;;;;;;;1.90;1.00;;;21.70;58.60;;;;;;5051727;28;20678;-68
2023/11/16 01:03:06;;;;;;;1.30;1.10;;;21.70;58.60;;;;;;5051938;28;20183;-69
2023/11/16 01:05:32;;;;;;;1.57;1.07;;;21.70;58.50;;;;;;5051836;28;20178;-70
2023/11/16 01:07:58;;;;;;;1.93;1.30;;;21.60;58.50;;;;;;5051830;28;20928;-68
2023/11/16 01:10:24;;;;;;;1.87;0.90;;;21.60;58.50;;;;;;5051612;28;20406;-69
2023/11/16 01:12:53;;;;;;;1.67;0.87;;;21.60;58.50;;;;;;5051736;28;20176;-69
2023/11/16 01:15:20;;;;;;;1.37;0.83;;;21.60;58.50;;;;;;5050422;28;20440;-69
2023/11/16 01:17:48;;;;;;;1.40;0.90;;;21.60;58.50;;;;;;5051432;28;20808;-70
2023/11/16 01:20:22;;;;;;;1.73;0.90;;;21.60;58.50;;;;;;5051462;28;20449;-68
2023/11/16 01:23:01;;;;;;;1.87;1.00;;;21.60;58.50;;;;;;5051753;28;20405;-69
2023/11/16 01:25:26;;;;;;;1.17;1.00;;;21.60;58.50;;;;;;5051445;28;20409;-69
2023/11/16 01:27:57;;;;;;;2.53;1.10;;;21.60;58.60;;;;;;5051491;28;20409;-69
2023/11/16 01:30:23;;;;;;;2.50;1.10;;;21.60;58.60;;;;;;5051703;28;20178;-70
2023/11/16 01:32:49;;;;;;;1.97;1.00;;;21.60;58.60;;;;;;5051537;28;20414;-67
2023/11/16 01:35:15;;;;;;;2.53;1.20;;;21.60;58.60;;;;;;5050091;28;20528;-69
2023/11/16 01:37:42;;;;;;;1.73;1.03;;;21.50;58.50;;;;;;5051282;28;20521;-69
2023/11/16 01:40:09;;;;;;;1.23;0.90;;;21.50;58.60;;;;;;5051380;28;20617;-69
2023/11/16 01:42:34;;;;;;;1.30;1.10;;;21.50;58.60;;;;;;5051343;28;20763;-70
2023/11/16 01:45:00;;;;;;;2.13;1.00;;;21.60;58.60;;;;;;5051153;28;20406;-69
2023/11/16 01:47:26;;;;;;;1.27;0.83;;;21.50;58.60;;;;;;5051248;28;20252;-69
2023/11/16 01:49:52;;;;;;;1.80;1.03;;;21.50;58.60;;;;;;5051045;28;20213;-69
2023/11/16 01:52:19;;;;;;;1.40;0.93;;;21.50;58.60;;;;;;5051148;28;20175;-68
2023/11/16 01:54:45;;;;;;;1.63;1.10;;;21.50;58.60;;;;;;5051201;28;20405;-69
2023/11/16 01:57:12;;;;;;;1.77;0.90;;;21.50;58.60;;;;;;5049677;28;20437;-70
2023/11/16 01:59:38;;;;;;;1.67;1.00;;;21.50;58.60;;;;;;5050882;28;20484;-69
2023/11/16 02:02:05;;;;;;;1.10;0.90;;;21.50;58.60;;;;;;5050945;28;20776;-69
2023/11/16 02:04:34;;;;;;;1.20;1.00;;;21.50;58.60;;;;;;5050954;28;20436;-69
2023/11/16 02:07:01;;;;;;;1.90;0.97;;;21.50;58.60;;;;;;5049408;28;20437;-69
2023/11/16 02:09:26;;;;;;;2.13;1.00;;;21.50;58.60;;;;;;5050972;28;20887;-69
2023/11/16 02:11:52;;;;;;;2.10;1.00;;;21.50;58.60;;;;;;5050639;28;20448;-69
2023/11/16 02:14:18;;;;;;;1.00;0.70;;;21.50;58.60;;;;;;5050906;28;20198;-67
2023/11/16 02:16:43;;;;;;;1.60;0.90;;;21.50;58.60;;;;;;5050689;28;20696;-70
2023/11/16 02:19:30;;;;;;;1.10;0.97;;;21.50;58.60;;;;;;5050569;28;20194;-67
2023/11/16 02:22:01;;;;;;;1.50;0.90;;;21.50;58.60;;;;;;5050070;28;20279;-69
2023/11/16 02:24:27;;;;;;;1.30;0.90;;;21.50;58.70;;;;;;5050603;28;20480;-70
2023/11/16 02:26:53;;;;;;;2.00;0.90;;;21.50;58.60;;;;;;5050482;28;20422;-69
2023/11/16 02:29:19;;;;;;;1.00;0.90;;;21.50;58.70;;;;;;5050466;28;20410;-69
2023/11/16 02:31:45;;;;;;;1.20;0.90;;;21.50;58.70;;;;;;5050449;28;20478;-69
2023/11/16 02:34:10;;;;;;;3.47;0.97;;;21.50;58.70;;;;;;5050700;28;20711;-69
2023/11/16 02:36:36;;;;;;;1.27;0.90;;;21.50;58.70;;;;;;5050236;28;20963;-68
2023/11/16 02:39:03;;;;;;;1.47;1.07;;;21.50;58.70;;;;;;5050569;28;20167;-69
2023/11/16 02:41:32;;;;;;;1.10;0.83;;;21.50;58.70;;;;;;5050356;28;20194;-70
2023/11/16 02:43:57;;;;;;;1.70;1.10;;;21.50;58.70;;;;;;5050301;28;20727;-69
2023/11/16 02:46:23;;;;;;;1.47;1.03;;;21.50;58.70;;;;;;5050345;28;20563;-69
2023/11/16 02:48:49;;;;;;;1.90;0.83;;;21.50;58.70;;;;;;5048950;28;20179;-68
2023/11/16 02:51:18;;;;;;;1.43;1.10;;;21.40;58.60;;;;;;5050316;28;20203;-69
2023/11/16 02:53:45;;;;;;;1.23;0.90;;;21.40;58.70;;;;;;5050334;28;20151;-69
2023/11/16 02:56:13;;;;;;;1.30;1.00;;;21.40;58.70;;;;;;5050456;28;20795;-69
2023/11/16 02:58:43;;;;;;;2.27;0.80;;;21.40;58.70;;;;;;5050478;28;20186;-67
2023/11/16 03:01:09;;;;;;;1.70;1.10;;;21.40;58.70;;;;;;5050109;28;20963;-69
2023/11/16 03:03:36;;;;;;;1.10;0.90;;;21.40;58.70;;;;;;5048625;28;20426;-69
2023/11/16 03:06:03;;;;;;;2.13;0.80;;;21.40;58.70;;;;;;5050356;28;20198;-69
2023/11/16 03:08:29;;;;;;;0.80;0.60;;;21.40;58.70;;;;;;5050015;28;20411;-68
2023/11/16 03:10:55;;;;;;;1.20;1.10;;;21.40;58.70;;;;;;5049942;28;20409;-69
2023/11/16 03:13:21;;;;;;;1.60;1.00;;;21.40;58.70;;;;;;5050050;28;20534;-69
2023/11/16 03:15:48;;;;;;;2.30;0.90;;;21.40;58.70;;;;;;5050185;28;20436;-69
2023/11/16 03:18:14;;;;;;;1.37;0.80;;;21.40;58.70;;;;;;5049892;28;20433;-70
2023/11/16 03:20:43;;;;;;;1.83;0.90;;;21.40;58.70;;;;;;5050285;28;20453;-68
2023/11/16 03:23:08;;;;;;;1.30;0.90;;;21.40;58.70;;;;;;5049905;28;20401;-69
2023/11/16 03:25:35;;;;;;;0.87;0.63;;;21.40;58.70;;;;;;5050014;28;20819;-69
2023/11/16 03:28:01;;;;;;;1.20;1.00;;;21.40;58.70;;;;;;5049985;28;20646;-69
2023/11/16 03:30:27;;;;;;;1.70;0.90;;;21.40;58.70;;;;;;5048462;28;20475;-69
2023/11/16 03:32:53;;;;;;;1.50;1.30;;;21.40;58.70;;;;;;5049917;28;20541;-70
2023/11/16 03:35:18;;;;;;;1.60;1.40;;;21.40;58.70;;;;;;5053668;28;20413;-69
2023/11/16 03:37:44;;;;;;;1.63;0.90;;;21.40;58.70;;;;;;5053348;28;20194;-69
2023/11/16 03:40:12;;;;;;;0.90;0.80;;;21.40;58.70;;;;;;5053740;28;20333;-68
2023/11/16 03:42:37;;;;;;;1.07;0.80;;;21.40;58.70;;;;;;5053527;28;20178;-70
2023/11/16 03:45:05;;;;;;;1.40;1.20;;;21.40;58.70;;;;;;5053352;28;20402;-69
2023/11/16 03:47:30;;;;;;;1.10;0.80;;;21.40;58.70;;;;;;5053670;28;20208;-69
2023/11/16 03:49:58;;;;;;;1.00;0.80;;;21.40;58.70;;;;;;5053199;28;20402;-69
2023/11/16 03:52:24;;;;;;;1.40;1.00;;;21.40;58.70;;;;;;5053229;28;20174;-69
2023/11/16 03:54:50;;;;;;;1.47;1.00;;;21.40;58.70;;;;;;5053312;28;20413;-69
2023/11/16 03:57:16;;;;;;;1.20;0.90;;;21.40;58.80;;;;;;5053147;28;20433;-68
2023/11/16 03:59:41;;;;;;;1.43;1.10;;;21.40;58.80;;;;;;5053042;28;20760;-69
2023/11/16 04:02:08;;;;;;;1.20;0.80;;;21.40;59.30;;;;;;5052911;28;20178;-69
2023/11/16 04:04:33;;;;;;;1.17;0.87;;;21.40;58.80;;;;;;5053366;28;20182;-69
2023/11/16 04:06:59;;;;;;;0.90;0.70;;;21.40;58.80;;;;;;5053054;28;20795;-69
2023/11/16 04:09:25;;;;;;;1.43;0.90;;;21.30;58.70;;;;;;5052933;28;20177;-69
2023/11/16 04:11:51;;;;;;;1.57;0.80;;;21.30;58.70;;;;;;5053023;28;20175;-70
2023/11/16 04:14:17;;;;;;;1.20;1.10;;;21.30;58.70;;;;;;5052896;28;20225;-70
2023/11/16 04:16:52;;;;;;;1.73;1.00;;;21.30;58.70;;;;;;5052836;28;20444;-69
2023/11/16 04:19:18;;;;;;;2.20;1.00;;;21.30;58.80;;;;;;5052652;28;20443;-69
2023/11/16 04:21:44;;;;;;;1.30;0.90;;;21.30;58.70;;;;;;5052592;28;20461;-70
2023/11/16 04:24:11;;;;;;;1.17;0.90;;;21.30;58.70;;;;;;5052832;28;20526;-69
2023/11/16 04:26:37;;;;;;;1.70;1.10;;;21.30;58.70;;;;;;5052713;28;20748;-68
2023/11/16 04:29:04;;;;;;;1.00;0.80;;;21.30;58.70;;;;;;5052619;28;20942;-69
2023/11/16 04:31:30;;;;;;;1.30;0.77;;;21.30;58.80;;;;;;5052450;28;20418;-69
2023/11/16 04:33:57;;;;;;;1.00;0.90;;;21.30;58.80;;;;;;5052609;28;20496;-69
2023/11/16 04:36:28;;;;;;;1.00;0.80;;;21.30;58.70;;;;;;5052332;28;20433;-69
2023/11/16 04:38:55;;;;;;;1.73;1.10;;;21.30;58.70;;;;;;5052551;28;20390;-69
2023/11/16 04:41:25;;;;;;;1.20;0.90;;;21.30;58.80;;;;;;5052394;28;20955;-69
2023/11/16 04:43:51;;;;;;;0.93;0.77;;;21.40;58.90;;;;;;5051102;28;20927;-69
2023/11/16 04:46:18;;;;;;;1.63;1.00;;;21.30;58.70;;;;;;5051827;28;20499;-69
2023/11/16 04:48:43;;;;;;;1.57;1.00;;;21.30;58.70;;;;;;5052138;28;20406;-69
2023/11/16 04:51:17;;;;;;;1.20;0.93;;;21.30;58.80;;;;;;5052354;28;20483;-67
2023/11/16 04:53:49;;;;;;;1.00;0.80;;;21.30;58.80;;;;;;5052187;28;20166;-69
2023/11/16 04:56:15;;;;;;;1.50;0.87;;;21.30;58.70;;;;;;5052077;28;20814;-68
2023/11/16 04:58:42;;;;;;;1.00;0.80;;;21.30;58.70;;;;;;5052044;28;20496;-69
2023/11/16 05:01:08;;;;;;;1.10;0.80;;;21.30;58.70;;;;;;5052072;28;20201;-70
2023/11/16 05:03:33;;;;;;;2.00;1.10;;;21.30;58.70;;;;;;5052382;28;20414;-69
2023/11/16 05:06:01;;;;;;;1.83;0.83;;;21.30;58.80;;;;;;5051995;28;20685;-69
2023/11/16 05:08:27;;;;;;;1.10;0.77;;;21.30;58.80;;;;;;5052150;28;20662;-69
2023/11/16 05:10:52;;;;;;;1.00;0.70;;;21.30;58.80;;;;;;5051947;28;20456;-68
2023/11/16 05:13:21;;;;;;;1.40;1.00;;;21.30;59.30;;;;;;5051977;28;20205;-67
2023/11/16 05:15:47;;;;;;;1.10;0.83;;;21.30;58.80;;;;;;5051783;28;20203;-69
2023/11/16 05:18:14;;;;;;;1.33;0.83;;;21.30;58.80;;;;;;5051710;28;20437;-69
2023/11/16 05:20:39;;;;;;;1.10;0.90;;;21.30;58.80;;;;;;5051684;28;20202;-69
2023/11/16 05:23:05;;;;;;;1.10;0.80;;;21.30;58.80;;;;;;5051958;28;20915;-69
2023/11/16 05:25:33;;;;;;;1.43;0.80;;;21.30;58.80;;;;;;5051561;28;20636;-69
2023/11/16 05:27:58;;;;;;;1.13;0.80;;;21.30;58.80;;;;;;5050306;28;20183;-68
2023/11/16 05:30:26;;;;;;;1.27;0.90;;;21.30;58.80;;;;;;5051552;28;20412;-69
2023/11/16 05:32:52;;;;;;;1.10;0.80;;;21.30;58.80;;;;;;5051596;28;20179;-68
2023/11/16 05:35:18;;;;;;;1.53;0.87;;;21.30;58.80;;;;;;5049627;28;20992;-68
2023/11/16 05:37:44;;;;;;;1.50;1.00;;;21.30;58.80;;;;;;5044140;28;20214;-69
2023/11/16 05:40:09;;;;;;;2.40;1.23;;;21.30;58.80;;;;;;5051170;28;21249;-69
2023/11/16 05:42:35;;;;;;;1.53;0.93;;;21.20;58.70;;;;;;5049639;28;20171;-69
2023/11/16 05:45:02;;;;;;;1.40;0.87;;;21.30;58.80;;;;;;5051232;28;20422;-69
2023/11/16 05:47:29;;;;;;;2.80;0.90;;;21.30;58.60;;;;;;5051230;28;20577;-68
2023/11/16 05:49:56;;;;;;;1.93;1.00;;;21.30;58.40;;;;;;5051462;28;20424;-69
2023/11/16 05:52:22;;;;;;;1.30;1.10;;;21.20;58.40;;;;;;5051063;28;20414;-68
2023/11/16 05:54:48;;;;;;;1.30;0.80;;;21.30;58.50;;;;;;5051160;28;20930;-68
2023/11/16 05:57:14;;;;;;;1.10;0.90;;;21.30;58.50;;;;;;5050186;28;20893;-69
2023/11/16 05:59:40;;;;;;;1.33;1.10;;;21.30;58.60;;;;;;5051006;28;20421;-69
2023/11/16 06:02:06;;;;;;;1.30;0.93;;;21.30;58.60;;;;;;5051046;28;20783;-68
2023/11/16 06:04:33;;;;;;;1.90;0.90;;;21.30;58.60;;;;;;5050901;28;20436;-70
2023/11/16 06:06:59;;;;;;;2.20;0.93;;;21.30;58.60;;;;;;5050562;28;20182;-70
2023/11/16 06:09:24;;;;;;;1.10;0.80;;;21.30;58.60;;;;;;5050695;28;20973;-69
2023/11/16 06:11:50;;;;;;;1.73;1.20;;;21.30;58.60;;;;;;5051077;28;20167;-69
2023/11/16 06:14:16;;;;;;;1.57;0.90;;;21.30;58.60;;;;;;5049127;28;20215;-68
2023/11/16 06:16:45;;;;;;;2.30;1.20;;;21.30;58.60;;;;;;5050266;28;20199;-68
2023/11/16 06:19:14;;;;;;;1.77;1.20;;;21.30;58.60;;;;;;5050101;28;20792;-70
2023/11/16 06:21:41;;;;;;;1.67;1.40;;;21.30;58.40;;;;;;5050299;28;20836;-68
2023/11/16 06:24:07;;;;;;;1.37;1.20;;;21.30;58.40;;;;;;5050230;28;20405;-67
2023/11/16 06:26:33;;;;;;;2.73;1.17;;;21.30;58.40;;;;;;5050378;28;20803;-68
2023/11/16 06:28:59;;;;;;;3.03;1.30;;;21.30;58.40;;;;;;5050150;28;20409;-69
2023/11/16 06:31:25;;;;;;;2.00;1.10;;;21.30;58.40;;;;;;5050413;28;20973;-67
2023/11/16 06:33:51;;;;;;;2.03;1.10;;;21.30;58.40;;;;;;5050076;28;20414;-69
2023/11/16 06:36:16;;;;;;;2.70;1.20;;;21.30;58.50;;;;;;5050122;28;20260;-68
2023/11/16 06:38:42;;;;;;;1.27;0.80;;;21.30;58.40;;;;;;5050068;28;20179;-67
2023/11/16 06:41:09;;;;;;;2.30;1.63;;;21.30;58.40;;;;;;5049867;28;20207;-69
2023/11/16 06:43:34;;;;;;;3.10;1.10;;;21.30;58.50;;;;;;5050080;28;20232;-69
2023/11/16 06:46:02;;;;;;;1.97;1.33;;;21.30;58.50;;;;;;5049873;28;20441;-68
2023/11/16 06:48:30;;;;;;;2.50;1.07;;;21.30;58.50;;;;;;5049980;28;20174;-68
2023/11/16 06:50:59;;;;;;;2.73;1.17;;;21.40;58.60;;;;;;5048515;28;20413;-70
2023/11/16 06:53:25;;;;;;;1.87;1.10;;;21.30;58.50;;;;;;5049949;28;20445;-69
2023/11/16 06:55:52;;;;;;;4.33;1.13;;;21.30;58.50;;;;;;5049818;28;20495;-70
2023/11/16 06:58:20;;;;;;;1.50;1.07;;;21.30;58.60;;;;;;5048509;28;20421;-69
2023/11/16 07:00:50;;;;;;;1.67;1.10;;;21.30;58.50;;;;;;5049926;28;20530;-69
2023/11/16 07:03:16;;;;;;;1.90;1.10;;;21.30;58.50;;;;;;5050097;28;20768;-68
2023/11/16 07:05:42;;;;;;;1.50;1.03;;;21.30;58.50;;;;;;5049739;28;20425;-69
2023/11/16 07:08:09;;;;;;;1.67;1.30;;;21.30;58.60;;;;;;5048544;28;20202;-70
2023/11/16 07:10:35;;;;;;;1.47;1.07;;;21.40;58.60;;;;;;5053679;28;20409;-70
2023/11/16 07:13:01;;;;;;;1.47;1.00;;;21.40;58.60;;;;;;5053677;28;20421;-68
2023/11/16 07:15:28;;;;;;;2.07;1.00;;;21.40;58.60;;;;;;5053619;28;20425;-68
2023/11/16 07:17:54;;;;;;;2.03;1.17;;;21.40;58.60;;;;;;5053359;28;20190;-69
2023/11/16 07:20:21;;;;;;;1.57;1.00;;;21.40;58.60;;;;;;5053692;28;20456;-69
2023/11/16 07:22:47;;;;;;;1.57;1.03;;;21.40;58.60;;;;;;5053760;28;20409;-70
2023/11/16 07:25:15;;;;;;;2.50;1.30;;;21.40;58.60;;;;;;5053504;28;21079;-67
2023/11/16 07:27:41;;;;;;;1.20;0.87;;;21.40;58.60;;;;;;5053241;28;20191;-70
2023/11/16 07:30:08;;;;;;;0.97;0.83;;;21.40;58.60;;;;;;5053454;28;20913;-69
2023/11/16 07:32:33;;;;;;;1.23;1.00;;;21.40;58.60;;;;;;5053330;28;20494;-68
2023/11/16 07:34:59;;;;;;;1.33;1.07;;;21.40;58.60;;;;;;5053224;28;20433;-68
2023/11/16 07:37:26;;;;;;;1.50;1.00;;;21.40;58.60;;;;;;5053188;28;20680;-68
2023/11/16 07:39:54;;;;;;;1.57;0.90;;;21.40;58.60;;;;;;5053169;28;20336;-70
2023/11/16 07:42:21;;;;;;;3.10;1.10;;;21.40;58.60;;;;;;5053122;28;20413;-69
2023/11/16 07:44:46;;;;;;;1.23;0.97;;;21.40;58.60;;;;;;5053083;28;20423;-67
2023/11/16 07:47:13;;;;;;;1.20;1.10;;;21.50;58.70;;;;;;5052941;28;20959;-69
2023/11/16 07:49:39;;;;;;;1.27;0.80;;;21.50;58.70;;;;;;5053009;28;20179;-69
2023/11/16 07:52:06;;;;;;;1.30;1.00;;;21.50;58.70;;;;;;5052911;28;20417;-70
2023/11/16 07:54:32;;;;;;;1.40;1.00;;;21.50;58.70;;;;;;5052908;28;20444;-70
2023/11/16 07:57:02;;;;;;;1.87;0.97;;;21.50;58.70;;;;;;5052898;28;20431;-68
2023/11/16 07:59:34;;;;;;;4.77;1.07;;;21.50;58.70;;;;;;5052611;28;20261;-69
2023/11/16 08:02:00;;;;;;;1.77;1.27;;;21.50;58.70;;;;;;5052970;28;20488;-68
2023/11/16 08:04:34;;;;;;;1.13;0.90;;;21.50;58.70;;;;;;5052756;28;20923;-70
2023/11/16 08:07:02;;;;;;;1.53;1.07;;;21.50;58.70;;;;;;5052659;28;20956;-68
2023/11/16 08:09:29;;;;;;;2.40;1.00;;;21.40;58.60;;;;;;5052532;28;20460;-68
2023/11/16 08:11:54;;;;;;;3.43;1.00;;;21.40;58.50;;;;;;5052559;28;20425;-66
2023/11/16 08:14:30;;;;;;;3.90;1.57;;;21.40;58.60;;;;;;5052572;28;20786;-70
2023/11/16 08:16:58;;;;;;;1.67;0.97;;;21.50;58.70;;;;;;5052422;28;20187;-69
2023/11/16 08:19:25;;;;;;;1.53;1.00;;;21.40;58.50;;;;;;5052091;28;20433;-69
2023/11/16 08:21:55;;;;;;;2.00;1.10;;;21.40;58.60;;;;;;5050251;28;20838;-68
2023/11/16 08:24:22;;;;;;;2.00;1.10;;;21.40;58.60;;;;;;5052836;28;20829;-68
2023/11/16 08:26:48;;;;;;;1.40;0.90;;;21.40;58.50;;;;;;5052266;28;20849;-68
2023/11/16 08:29:14;;;;;;;2.20;1.10;;;21.40;58.50;;;;;;5052351;28;20463;-68
2023/11/16 08:31:40;;;;;;;2.47;1.43;;;21.40;58.50;;;;;;5052141;28;20175;-68
2023/11/16 08:34:08;;;;;;;1.40;0.90;;;21.40;58.50;;;;;;5052056;28;20973;-70
2023/11/16 08:36:36;;;;;;;1.10;0.87;;;21.40;58.60;;;;;;5052116;28;20195;-68
2023/11/16 08:39:05;;;;;;;1.10;0.87;;;21.40;58.60;;;;;;5052131;28;20860;-69
2023/11/16 08:41:33;;;;;;;1.47;1.03;;;21.40;58.60;;;;;;5052015;28;21223;-68
2023/11/16 08:44:01;;;;;;;2.23;1.03;;;21.40;58.70;;;;;;5051995;28;20416;-68
2023/11/16 08:46:31;;;;;;;1.80;1.20;;;21.40;58.70;;;;;;5051792;28;20457;-69
2023/11/16 08:48:58;;;;;;;1.27;1.00;;;21.40;58.70;;;;;;5051856;28;20448;-69
2023/11/16 08:51:23;;;;;;;1.93;1.10;;;21.40;58.70;;;;;;5051836;28;20452;-70
2023/11/16 08:53:56;;;;;;;2.00;1.20;;;21.40;58.70;;;;;;5051798;28;20449;-69
2023/11/16 08:56:24;;;;;;;3.10;1.07;;;21.40;58.70;;;;;;5051609;28;20195;-68
2023/11/16 08:58:52;;;;;;;1.63;1.00;;;21.40;58.70;;;;;;5051769;28;20417;-69
2023/11/16 09:01:19;;;;;;;3.00;0.80;;;21.40;58.70;;;;;;5051539;28;20856;-68
2023/11/16 09:03:45;;;;;;;1.70;1.00;;;21.40;58.70;;;;;;5051803;28;20962;-68
2023/11/16 09:06:16;;;;;;;1.67;1.57;;;21.40;58.70;;;;;;5051741;28;20433;-69
2023/11/16 09:08:42;;;;;;;2.13;1.03;;;21.40;58.60;;;;;;5051458;28;20776;-70
2023/11/16 09:11:08;;;;;;;2.00;1.07;;;21.50;58.70;;;;;;5051576;28;20418;-70
2023/11/16 09:13:34;;;;;;;1.17;0.90;;;21.40;58.60;;;;;;5050069;28;20437;-69
2023/11/16 09:16:00;;;;;;;1.40;1.00;;;21.50;58.70;;;;;;5049833;28;20445;-68
2023/11/16 09:18:27;;;;;;;3.93;0.90;;;21.40;58.60;;;;;;5051095;28;20191;-67
2023/11/16 09:20:56;;;;;;;1.70;1.00;;;21.40;58.60;;;;;;5049798;28;20211;-69
2023/11/16 09:23:23;;;;;;;1.90;0.80;;;21.40;58.60;;;;;;5051313;28;20800;-69
2023/11/16 09:25:49;;;;;;;2.27;1.00;;;21.40;58.60;;;;;;5051386;28;20846;-68
2023/11/16 09:28:15;;;;;;;1.37;0.90;;;21.40;58.60;;;;;;5051056;28;20410;-70
2023/11/16 09:30:43;;;;;;;1.90;1.10;;;21.40;58.60;;;;;;5051176;28;20425;-65
2023/11/16 09:33:10;;;;;;;1.10;0.80;;;21.40;58.60;;;;;;5050783;28;20420;-69
2023/11/16 09:35:40;;;;;;;1.20;0.90;;;21.40;58.50;;;;;;5050875;28;20410;-68
2023/11/16 09:38:09;;;;;;;1.00;0.73;;;21.40;58.60;;;;;;5049546;28;20418;-69
2023/11/16 09:40:36;;;;;;;1.20;0.80;;;21.40;58.60;;;;;;5050688;28;20501;-70
2023/11/16 09:43:17;;;;;;;1.40;0.93;;;21.40;58.60;;;;;;5050880;28;20854;-70
2023/11/16 09:45:47;;;;;;;1.10;0.80;;;21.40;58.60;;;;;;5050779;28;20487;-69
2023/11/16 09:48:14;;;;;;;1.50;1.00;;;21.40;58.60;;;;;;5050743;28;20987;-69
2023/11/16 09:50:48;;;;;;;1.13;0.80;;;21.40;58.60;;;;;;5051010;28;20424;-68
2023/11/16 09:53:18;;;;;;;1.57;0.90;;;21.40;58.60;;;;;;5050607;28;20409;-69
2023/11/16 09:55:50;;;;;;;2.90;1.10;;;21.40;58.60;;;;;;5050490;28;20437;-67
2023/11/16 09:58:25;;;;;;;1.20;0.87;;;21.40;58.60;;;;;;5050525;28;20402;-69
2023/11/16 10:00:57;;;;;;;2.03;1.00;;;21.40;58.70;;;;;;5050422;28;20456;-70
2023/11/16 10:03:31;;;;;;;1.30;0.87;;;21.40;58.60;;;;;;5050507;28;20492;-68
2023/11/16 10:05:58;;;;;;;1.83;1.00;;;21.40;58.70;;;;;;5048901;28;20445;-70
2023/11/16 10:08:28;;;;;;;1.20;0.90;;;21.40;58.70;;;;;;5050377;28;20433;-68
2023/11/16 10:11:00;;;;;;;1.63;0.83;;;21.40;58.70;;;;;;5050346;28;20413;-68
2023/11/16 10:13:27;;;;;;;1.20;0.70;;;21.40;58.70;;;;;;5048913;28;20452;-68
2023/11/16 10:15:53;;;;;;;2.93;0.93;;;21.40;58.70;;;;;;5050210;28;20429;-69
2023/11/16 10:18:24;;;;;;;2.97;1.07;;;21.40;58.80;;;;;;5050194;28;20476;-68
2023/11/16 10:20:50;;;;;;;1.77;0.83;;;21.40;58.70;;;;;;5048832;28;20453;-69
2023/11/16 10:23:17;;;;;;;4.03;0.97;;;21.40;58.70;;;;;;5050480;28;20413;-68
2023/11/16 10:25:44;;;;;;;1.77;1.00;;;21.40;58.80;;;;;;5050182;28;20437;-67
2023/11/16 10:28:21;;;;;;;1.80;0.93;;;21.40;59.30;;;;;;5050221;28;20795;-68
2023/11/16 10:30:50;;;;;;;1.40;1.00;;;21.40;58.70;;;;;;5050153;28;20416;-69
2023/11/16 10:33:17;;;;;;;1.30;1.00;;;21.40;58.70;;;;;;5050118;28;20414;-69
2023/11/16 10:35:48;;;;;;;1.37;0.90;;;21.40;58.70;;;;;;5048621;28;20445;-69
2023/11/16 10:38:18;;;;;;;1.00;0.90;;;21.40;58.70;;;;;;5050097;28;21005;-69
2023/11/16 10:40:47;;;;;;;2.13;1.00;;;21.40;58.70;;;;;;5050265;28;20465;-68
2023/11/16 10:43:18;;;;;;;2.47;0.93;;;21.40;58.70;;;;;;5049536;28;20409;-68
2023/11/16 10:45:44;;;;;;;1.47;0.80;;;21.40;58.70;;;;;;5049895;28;20516;-69
2023/11/16 10:48:13;;;;;;;1.30;1.00;;;21.40;58.70;;;;;;5049940;28;20489;-69
2023/11/16 10:50:42;;;;;;;3.13;1.03;;;21.40;58.60;;;;;;5049990;28;20171;-70
2023/11/16 10:53:23;;;;;;;1.20;1.00;;;21.40;58.70;;;;;;5049926;28;20769;-66
2023/11/16 10:55:50;;;;;;;1.53;0.83;;;21.40;58.70;;;;;;5049885;28;20461;-69
2023/11/16 10:58:22;;;;;;;1.70;1.17;;;21.40;58.70;;;;;;5049922;28;20417;-67
2023/11/16 11:00:52;;;;;;;1.50;0.90;;;21.40;58.70;;;;;;5049837;28;20449;-69
2023/11/16 11:03:19;;;;;;;1.10;0.70;;;21.40;58.60;;;;;;5049840;28;20397;-69
2023/11/16 11:05:52;;;;;;;1.50;0.90;;;21.40;58.70;;;;;;5049698;28;20462;-68
2023/11/16 11:08:19;;;;;;;1.00;0.80;;;21.40;58.70;;;;;;5049823;28;20390;-69
2023/11/16 11:10:52;;;;;;;1.20;1.00;;;21.40;58.70;;;;;;5049751;28;20500;-70
2023/11/16 11:13:28;;;;;;;1.43;1.00;;;21.40;58.60;;;;;;5049971;28;20409;-69
2023/11/16 11:16:02;;;;;;;1.10;0.80;;;21.40;58.60;;;;;;5049908;28;20513;-69
2023/11/16 11:18:28;;;;;;;1.40;1.00;;;21.40;58.70;;;;;;5049687;28;20442;-67
2023/11/16 11:21:07;;;;;;;1.13;0.80;;;21.40;58.70;;;;;;5049624;28;20955;-69
2023/11/16 11:23:33;;;;;;;2.23;1.73;;;21.40;58.70;;;;;;5049727;28;20208;-70
2023/11/16 11:26:04;;;;;;;1.10;0.80;;;21.40;58.70;;;;;;5049705;28;20431;-68
2023/11/16 11:28:30;;;;;;;2.33;1.27;;;21.40;58.80;;;;;;5049522;28;20409;-69
2023/11/16 11:30:59;;;;;;;1.37;0.80;;;21.40;58.80;;;;;;5049544;28;20421;-69
2023/11/16 11:33:36;;;;;;;1.57;0.70;;;21.40;58.80;;;;;;5049841;28;20418;-69
2023/11/16 11:36:10;;;;;;;1.20;0.90;;;21.40;58.80;;;;;;5049967;28;20520;-70
2023/11/16 11:38:39;;;;;;;2.03;1.10;;;21.40;58.80;;;;;;5049820;28;20413;-70
2023/11/16 11:41:12;;;;;;;1.83;1.10;;;21.40;58.80;;;;;;5049504;28;20460;-69
2023/11/16 11:43:42;;;;;;;1.10;0.80;;;21.40;58.70;;;;;;5049817;28;20402;-66
2023/11/16 11:46:16;;;;;;;1.60;1.40;;;21.40;58.70;;;;;;5049718;28;20490;-69
2023/11/16 11:48:42;;;;;;;4.00;1.20;;;21.40;58.70;;;;;;5049498;28;20396;-69
2023/11/16 11:51:10;;;;;;;3.07;1.20;;;21.40;58.60;;;;;;5049418;28;20421;-69
2023/11/16 11:53:37;;;;;;;1.63;1.30;;;21.40;58.60;;;;;;5049291;28;20190;-69
2023/11/16 11:56:06;;;;;;;2.10;1.40;;;21.40;58.60;;;;;;5050876;28;20429;-70
2023/11/16 11:58:35;;;;;;;10.23;4.67;;;21.40;58.60;;;;;;5052976;28;20449;-69
2023/11/16 12:01:01;;;;;;;29.07;12.50;;;21.40;58.60;;;;;;5052880;28;20496;-69
2023/11/16 12:03:27;;;;;;;53.60;24.57;;;21.40;58.70;;;;;;5051806;28;20414;-70
2023/11/16 12:05:58;;;;;;;79.90;33.90;;;21.40;58.70;;;;;;5053071;28;20912;-70
2023/11/16 12:08:40;;;;;;;89.00;46.00;;;21.40;58.70;;;;;;5052832;28;20412;-69
2023/11/16 12:11:09;;;;;;;78.00;41.87;;;21.40;58.70;;;;;;5052473;28;20497;-68
2023/11/16 12:13:36;;;;;;;162.73;61.10;;;21.40;58.70;;;;;;5052506;28;20424;-69
2023/11/16 12:16:06;;;;;;;163.20;65.57;;;21.40;58.70;;;;;;5052518;28;20461;-69
2023/11/16 12:18:35;;;;;;;158.87;54.50;;;21.40;58.80;;;;;;5051010;28;20756;-68
2023/11/16 12:21:04;;;;;;;99.23;46.23;;;21.40;58.80;;;;;;5052336;28;20548;-68
2023/11/16 12:23:30;;;;;;;94.13;44.67;;;21.40;58.80;;;;;;5053031;28;20751;-69
2023/11/16 12:25:55;;;;;;;88.17;43.67;;;21.40;58.70;;;;;;5052649;28;20433;-69
2023/11/16 12:28:25;;;;;;;98.93;44.20;;;21.40;58.80;;;;;;5052455;28;20682;-67
2023/11/16 12:30:50;;;;;;;155.87;61.53;;;21.40;58.80;;;;;;5052354;28;20699;-70
2023/11/16 12:33:16;;;;;;;151.17;58.57;;;21.40;58.80;;;;;;5052527;28;20421;-69
2023/11/16 12:35:42;;;;;;;134.67;49.20;;;21.30;58.70;;;;;;5051456;28;20218;-71
2023/11/16 12:38:07;;;;;;;136.57;54.13;;;21.40;58.80;;;;;;5054120;28;20189;-68
2023/11/16 12:40:35;;;;;;;129.23;50.07;;;21.40;58.80;;;;;;5070094;28;20218;-68
2023/11/16 12:43:03;;;;;;;112.97;48.23;;;21.40;58.80;;;;;;5072093;28;20735;-68
2023/11/16 12:45:30;;;;;;;117.37;50.40;;;21.40;59.40;;;;;;5071964;28;20938;-67
2023/11/16 12:47:57;;;;;;;121.83;50.77;;;21.40;58.80;;;;;;5071885;28;21034;-70